createdAt,value
2019-04-14T00:00:10.528Z,1018.85
2019-04-14T00:00:51.442Z,1018.85
2019-04-14T00:01:32.598Z,1018.88
2019-04-14T00:02:12.212Z,1018.89
2019-04-14T00:02:53.289Z,1018.86
2019-04-14T00:03:34.631Z,1018.87
2019-04-14T00:04:14.011Z,1018.87
2019-04-14T00:04:55.053Z,1018.89
2019-04-14T00:05:35.787Z,1018.89
2019-04-14T00:06:15.914Z,1018.87
2019-04-14T00:06:56.933Z,1018.85
2019-04-14T00:07:36.789Z,1018.87
2019-04-14T00:08:17.712Z,1018.85
2019-04-14T00:08:58.581Z,1018.88
2019-04-14T00:09:38.530Z,1018.88
2019-04-14T00:10:20.263Z,1018.85
2019-04-14T00:10:59.662Z,1018.84
2019-04-14T00:11:40.807Z,1018.82
2019-04-14T00:12:20.886Z,1018.85
2019-04-14T00:13:02.453Z,1018.8
2019-04-14T00:13:41.900Z,1018.84
2019-04-14T00:14:22.879Z,1018.83
2019-04-14T00:15:03.010Z,1018.8
2019-04-14T00:15:46.806Z,1018.84
2019-04-14T00:16:24.876Z,1018.8
2019-04-14T00:17:04.677Z,1018.85
2019-04-14T00:17:45.623Z,1018.78
2019-04-14T00:18:25.757Z,1018.84
2019-04-14T00:19:06.539Z,1018.78
2019-04-14T00:19:47.776Z,1018.78
2019-04-14T00:20:27.475Z,1018.77
2019-04-14T00:21:08.706Z,1018.81
2019-04-14T00:21:48.592Z,1018.8
2019-04-14T00:22:30.603Z,1018.83
2019-04-14T00:23:10.783Z,1018.79
2019-04-14T00:23:50.349Z,1018.81
2019-04-14T00:24:31.301Z,1018.83
2019-04-14T00:25:11.494Z,1018.82
2019-04-14T00:25:52.254Z,1018.83
2019-04-14T00:26:33.485Z,1018.82
2019-04-14T00:27:13.194Z,1018.8
2019-04-14T00:27:54.323Z,1018.82
2019-04-14T00:28:34.373Z,1018.84
2019-04-14T00:29:15.180Z,1018.81
2019-04-14T00:29:56.722Z,1018.84
2019-04-14T00:30:36.098Z,1018.8
2019-04-14T00:31:17.331Z,1018.85
2019-04-14T00:31:57.248Z,1018.82
2019-04-14T00:32:37.932Z,1018.78
2019-04-14T00:33:19.198Z,1018.8
2019-04-14T00:33:58.940Z,1018.81
2019-04-14T00:34:39.841Z,1018.81
2019-04-14T00:35:20.968Z,1018.79
2019-04-14T00:36:00.661Z,1018.77
2019-04-14T00:36:41.581Z,1018.82
2019-04-14T00:37:22.723Z,1018.84
2019-04-14T00:38:02.438Z,1018.78
2019-04-14T00:38:43.420Z,1018.8
2019-04-14T00:39:23.461Z,1018.8
2019-04-14T00:40:04.084Z,1018.8
2019-04-14T00:40:45.403Z,1018.81
2019-04-14T00:41:36.000Z,1018.81
2019-04-14T00:42:06.648Z,1018.84
2019-04-14T00:42:47.330Z,1018.77
2019-04-14T00:43:26.827Z,1018.79
2019-04-14T00:44:07.808Z,1018.79
2019-04-14T00:44:47.968Z,1018.77
2019-04-14T00:45:36.903Z,1018.75
2019-04-14T00:46:10.000Z,1018.77
2019-04-14T00:46:49.703Z,1018.78
2019-04-14T00:47:31.133Z,1018.77
2019-04-14T00:48:14.178Z,1018.77
2019-04-14T00:48:51.764Z,1018.75
2019-04-14T00:49:31.895Z,1018.78
2019-04-14T00:50:12.571Z,1018.76
2019-04-14T00:50:53.934Z,1018.74
2019-04-14T00:51:36.306Z,1018.75
2019-04-14T00:52:14.523Z,1018.74
2019-04-14T00:52:54.742Z,1018.73
2019-04-14T00:53:35.999Z,1018.76
2019-04-14T00:54:15.811Z,1018.75
2019-04-14T00:54:56.495Z,1018.7
2019-04-14T00:55:37.951Z,1018.71
2019-04-14T00:56:17.481Z,1018.72
2019-04-14T00:56:58.456Z,1018.75
2019-04-14T00:57:39.746Z,1018.72
2019-04-14T00:58:19.258Z,1018.71
2019-04-14T00:59:00.568Z,1018.72
2019-04-14T00:59:40.496Z,1018.71
2019-04-14T01:00:21.941Z,1018.75
2019-04-14T01:01:02.682Z,1018.67
2019-04-14T01:01:42.665Z,1018.75
2019-04-14T01:02:23.231Z,1018.72
2019-04-14T01:03:04.676Z,1018.75
2019-04-14T01:03:44.224Z,1018.72
2019-04-14T01:04:25.111Z,1018.67
2019-04-14T01:05:06.530Z,1018.73
2019-04-14T01:05:46.008Z,1018.73
2019-04-14T01:06:27.276Z,1018.72
2019-04-14T01:07:07.017Z,1018.79
2019-04-14T01:07:47.991Z,1018.68
2019-04-14T01:08:29.213Z,1018.67
2019-04-14T01:09:08.694Z,1018.77
2019-04-14T01:09:49.251Z,1018.71
2019-04-14T01:10:30.059Z,1018.71
2019-04-14T01:11:11.630Z,1018.72
2019-04-14T01:11:51.071Z,1018.71
2019-04-14T01:12:32.092Z,1018.78
2019-04-14T01:13:13.017Z,1018.77
2019-04-14T01:13:52.952Z,1018.79
2019-04-14T01:14:34.199Z,1018.79
2019-04-14T01:15:13.789Z,1018.82
2019-04-14T01:16:00.405Z,1018.81
2019-04-14T01:16:34.919Z,1018.79
2019-04-14T01:17:15.577Z,1018.79
2019-04-14T01:17:57.088Z,1018.82
2019-04-14T01:18:36.662Z,1018.82
2019-04-14T01:19:17.727Z,1018.84
2019-04-14T01:19:57.770Z,1018.82
2019-04-14T01:20:38.542Z,1018.79
2019-04-14T01:21:19.633Z,1018.82
2019-04-14T01:22:00.930Z,1018.81
2019-04-14T01:22:40.230Z,1018.81
2019-04-14T01:23:21.529Z,1018.78
2019-04-14T01:24:01.389Z,1018.8
2019-04-14T01:24:42.480Z,1018.81
2019-04-14T01:25:23.800Z,1018.78
2019-04-14T01:26:03.249Z,1018.8
2019-04-14T01:26:44.207Z,1018.81
2019-04-14T01:27:25.535Z,1018.77
2019-04-14T01:28:04.997Z,1018.77
2019-04-14T01:28:46.142Z,1018.78
2019-04-14T01:29:26.141Z,1018.74
2019-04-14T01:30:06.747Z,1018.78
2019-04-14T01:30:48.013Z,1018.79
2019-04-14T01:31:27.808Z,1018.78
2019-04-14T01:32:08.794Z,1018.77
2019-04-14T01:32:50.077Z,1018.79
2019-04-14T01:33:29.693Z,1018.8
2019-04-14T01:34:10.776Z,1018.83
2019-04-14T01:34:52.583Z,1018.84
2019-04-14T01:35:31.594Z,1018.83
2019-04-14T01:36:12.749Z,1018.77
2019-04-14T01:36:53.919Z,1018.8
2019-04-14T01:37:33.384Z,1018.85
2019-04-14T01:38:14.746Z,1018.79
2019-04-14T01:38:55.632Z,1018.84
2019-04-14T01:39:35.129Z,1018.83
2019-04-14T01:40:16.376Z,1018.85
2019-04-14T01:40:56.180Z,1018.82
2019-04-14T01:41:36.838Z,1018.81
2019-04-14T01:42:18.060Z,1018.82
2019-04-14T01:42:57.860Z,1018.82
2019-04-14T01:43:38.582Z,1018.78
2019-04-14T01:44:19.884Z,1018.79
2019-04-14T01:44:59.584Z,1018.75
2019-04-14T01:45:40.317Z,1018.81
2019-04-14T01:46:25.872Z,1018.92
2019-04-14T01:47:01.285Z,1018.81
2019-04-14T01:47:42.044Z,1018.81
2019-04-14T01:48:23.495Z,1018.81
2019-04-14T01:49:02.964Z,1018.81
2019-04-14T01:49:44.363Z,1018.85
2019-04-14T01:50:24.077Z,1018.87
2019-04-14T01:51:04.845Z,1018.8
2019-04-14T01:51:46.256Z,1018.75
2019-04-14T01:52:25.758Z,1018.81
2019-04-14T01:53:07.460Z,1018.88
2019-04-14T01:53:46.901Z,1018.81
2019-04-14T01:54:27.748Z,1018.89
2019-04-14T01:55:09.093Z,1018.83
2019-04-14T01:55:48.656Z,1018.83
2019-04-14T01:56:29.497Z,1018.86
2019-04-14T01:57:10.943Z,1018.83
2019-04-14T01:57:50.363Z,1018.8
2019-04-14T01:58:31.719Z,1018.78
2019-04-14T01:59:11.512Z,1018.82
2019-04-14T01:59:52.509Z,1018.78
2019-04-14T02:00:33.717Z,1018.79
2019-04-14T02:01:13.209Z,1018.85
2019-04-14T02:01:54.271Z,1018.78
2019-04-14T02:02:34.347Z,1018.82
2019-04-14T02:03:14.975Z,1018.82
2019-04-14T02:03:56.282Z,1018.8
2019-04-14T02:04:36.039Z,1018.77
2019-04-14T02:05:16.835Z,1018.79
2019-04-14T02:05:58.182Z,1018.77
2019-04-14T02:06:37.700Z,1018.75
2019-04-14T02:07:19.011Z,1018.79
2019-04-14T02:08:00.049Z,1018.79
2019-04-14T02:08:39.452Z,1018.81
2019-04-14T02:09:20.820Z,1018.75
2019-04-14T02:10:01.682Z,1018.84
2019-04-14T02:10:41.294Z,1018.75
2019-04-14T02:11:22.577Z,1018.74
2019-04-14T02:12:02.284Z,1018.79
2019-04-14T02:12:43.104Z,1018.87
2019-04-14T02:13:24.620Z,1018.85
2019-04-14T02:14:04.034Z,1018.74
2019-04-14T02:14:45.144Z,1018.85
2019-04-14T02:15:26.499Z,1018.84
2019-04-14T02:16:18.362Z,1018.83
2019-04-14T02:16:50.746Z,1018.83
2019-04-14T02:17:26.896Z,1018.78
2019-04-14T02:18:07.815Z,1018.81
2019-04-14T02:18:50.500Z,1018.82
2019-04-14T02:19:28.605Z,1018.86
2019-04-14T02:20:10.018Z,1018.82
2019-04-14T02:20:51.049Z,1018.87
2019-04-14T02:21:30.381Z,1018.84
2019-04-14T02:22:11.656Z,1018.85
2019-04-14T02:22:51.446Z,1018.87
2019-04-14T02:23:32.309Z,1018.81
2019-04-14T02:24:13.518Z,1018.85
2019-04-14T02:24:53.151Z,1018.76
2019-04-14T02:25:33.913Z,1018.79
2019-04-14T02:26:15.382Z,1018.81
2019-04-14T02:26:54.865Z,1018.78
2019-04-14T02:27:36.024Z,1018.81
2019-04-14T02:28:15.956Z,1018.76
2019-04-14T02:28:57.141Z,1018.76
2019-04-14T02:29:38.269Z,1018.69
2019-04-14T02:30:22.877Z,1018.75
2019-04-14T02:31:09.766Z,1018.78
2019-04-14T02:31:59.450Z,1018.75
2019-04-14T02:32:49.142Z,1018.75
2019-04-14T02:33:31.684Z,1018.75
2019-04-14T02:34:07.201Z,1018.75
2019-04-14T02:34:47.473Z,1018.74
2019-04-14T02:35:27.690Z,1018.77
2019-04-14T02:36:13.602Z,1018.79
2019-04-14T02:36:56.101Z,1018.75
2019-04-14T02:37:25.823Z,1018.76
2019-04-14T02:38:22.743Z,1018.73
2019-04-14T02:39:05.820Z,1018.72
2019-04-14T02:39:38.294Z,1018.7
2019-04-14T02:41:10.461Z,1018.73
2019-04-14T02:41:35.547Z,1018.73
2019-04-14T02:42:25.807Z,1018.7
2019-04-14T02:46:19.823Z,1018.72
2019-04-14T02:48:55.134Z,1018.76
2019-04-14T02:50:16.930Z,1018.72
2019-04-14T02:51:03.997Z,1018.75
2019-04-14T02:51:39.728Z,1018.72
2019-04-14T02:52:27.785Z,1018.75
2019-04-14T02:53:07.222Z,1018.77
2019-04-14T02:54:35.868Z,1018.78
2019-04-14T02:55:48.343Z,1018.74
2019-04-14T02:56:27.650Z,1018.77
2019-04-14T02:57:09.494Z,1018.74
2019-04-14T02:57:44.568Z,1018.81
2019-04-14T02:58:44.186Z,1018.74
2019-04-14T02:59:03.381Z,1018.74
2019-04-14T02:59:49.257Z,1018.73
2019-04-14T03:00:31.007Z,1018.78
2019-04-14T03:01:14.275Z,1018.77
2019-04-14T03:03:15.825Z,1018.79
2019-04-14T03:03:48.647Z,1018.78
2019-04-14T03:04:32.966Z,1018.75
2019-04-14T03:05:09.219Z,1018.72
2019-04-14T03:06:05.082Z,1018.79
2019-04-14T03:06:32.879Z,1018.8
2019-04-14T03:07:27.935Z,1018.83
2019-04-14T03:07:59.549Z,1018.82
2019-04-14T03:08:41.145Z,1018.86
2019-04-14T03:09:28.673Z,1018.81
2019-04-14T03:10:10.197Z,1018.84
2019-04-14T03:11:16.761Z,1018.85
2019-04-14T03:12:16.078Z,1018.87
2019-04-14T03:12:37.690Z,1018.85
2019-04-14T03:14:06.007Z,1018.89
2019-04-14T03:16:01.394Z,1018.88
2019-04-14T03:16:51.671Z,1018.88
2019-04-14T03:17:28.879Z,1018.8
2019-04-14T03:18:23.738Z,1018.84
2019-04-14T03:18:43.854Z,1018.83
2019-04-14T03:19:24.738Z,1018.86
2019-04-14T03:20:13.469Z,1018.86
2019-04-14T03:20:39.257Z,1018.82
2019-04-14T03:21:26.132Z,1018.84
2019-04-14T03:22:12.134Z,1018.82
2019-04-14T03:23:32.728Z,1018.87
2019-04-14T03:24:36.986Z,1018.88
2019-04-14T03:25:22.186Z,1018.83
2019-04-14T03:26:04.544Z,1018.82
2019-04-14T03:26:47.269Z,1018.88
2019-04-14T03:27:47.630Z,1018.87
2019-04-14T03:28:06.561Z,1018.82
2019-04-14T03:29:05.133Z,1018.91
2019-04-14T03:30:32.552Z,1018.9
2019-04-14T03:31:07.990Z,1018.87
2019-04-14T03:32:35.542Z,1018.93
2019-04-14T03:33:16.946Z,1018.87
2019-04-14T03:35:03.177Z,1018.92
2019-04-14T03:37:28.756Z,1018.87
2019-04-14T03:38:24.191Z,1018.84
2019-04-14T03:40:25.374Z,1018.88
2019-04-14T03:41:08.328Z,1018.86
2019-04-14T03:41:44.474Z,1018.81
2019-04-14T03:42:28.439Z,1018.82
2019-04-14T03:43:09.687Z,1018.83
2019-04-14T03:43:54.118Z,1018.84
2019-04-14T03:44:27.757Z,1018.81
2019-04-14T03:45:03.379Z,1018.8
2019-04-14T03:47:13.049Z,1018.79
2019-04-14T03:47:59.627Z,1018.81
2019-04-14T03:49:13.683Z,1018.84
2019-04-14T03:50:27.995Z,1018.76
2019-04-14T03:52:37.343Z,1018.79
2019-04-14T03:53:21.190Z,1018.78
2019-04-14T03:53:51.770Z,1018.75
2019-04-14T03:54:25.609Z,1018.79
2019-04-14T03:55:05.418Z,1018.77
2019-04-14T03:55:36.951Z,1018.79
2019-04-14T03:56:12.547Z,1018.75
2019-04-14T03:56:51.357Z,1018.73
2019-04-14T03:57:32.691Z,1018.75
2019-04-14T03:58:13.380Z,1018.76
2019-04-14T03:58:53.179Z,1018.72
2019-04-14T03:59:33.093Z,1018.73
2019-04-14T04:00:13.897Z,1018.77
2019-04-14T04:00:55.307Z,1018.77
2019-04-14T04:01:34.793Z,1018.72
2019-04-14T04:02:16.069Z,1018.75
2019-04-14T04:02:55.894Z,1018.78
2019-04-14T04:03:36.802Z,1018.77
2019-04-14T04:04:18.226Z,1018.79
2019-04-14T04:04:57.732Z,1018.76
2019-04-14T04:05:39.118Z,1018.76
2019-04-14T04:06:18.750Z,1018.78
2019-04-14T04:06:59.607Z,1018.77
2019-04-14T04:07:41.002Z,1018.76
2019-04-14T04:08:20.430Z,1018.73
2019-04-14T04:09:01.893Z,1018.74
2019-04-14T04:09:41.566Z,1018.78
2019-04-14T04:10:22.557Z,1018.74
2019-04-14T04:11:03.944Z,1018.76
2019-04-14T04:11:43.459Z,1018.77
2019-04-14T04:12:24.676Z,1018.81
2019-04-14T04:13:04.332Z,1018.79
2019-04-14T04:13:45.511Z,1018.76
2019-04-14T04:14:25.452Z,1018.8
2019-04-14T04:15:06.223Z,1018.78
2019-04-14T04:15:47.565Z,1018.77
2019-04-14T04:16:27.162Z,1018.79
2019-04-14T04:17:07.986Z,1018.85
2019-04-14T04:17:49.339Z,1018.75
2019-04-14T04:18:28.886Z,1018.85
2019-04-14T04:19:13.551Z,1018.82
2019-04-14T04:19:50.205Z,1018.83
2019-04-14T04:20:30.648Z,1018.87
2019-04-14T04:21:11.631Z,1018.82
2019-04-14T04:21:51.620Z,1018.85
2019-04-14T04:22:32.554Z,1018.79
2019-04-14T04:23:13.884Z,1018.86
2019-04-14T04:23:53.374Z,1018.89
2019-04-14T04:24:35.101Z,1018.83
2019-04-14T04:25:14.440Z,1018.89
2019-04-14T04:25:55.107Z,1018.89
2019-04-14T04:26:36.560Z,1018.89
2019-04-14T04:27:16.110Z,1018.93
2019-04-14T04:27:56.871Z,1018.87
2019-04-14T04:28:38.447Z,1018.91
2019-04-14T04:29:17.935Z,1018.9
2019-04-14T04:29:59.182Z,1018.86
2019-04-14T04:30:38.909Z,1018.91
2019-04-14T04:31:19.892Z,1018.87
2019-04-14T04:32:01.319Z,1018.88
2019-04-14T04:32:40.694Z,1018.86
2019-04-14T04:33:21.995Z,1018.88
2019-04-14T04:34:01.859Z,1018.91
2019-04-14T04:34:42.438Z,1018.88
2019-04-14T04:35:23.884Z,1018.83
2019-04-14T04:36:03.601Z,1018.82
2019-04-14T04:36:44.263Z,1018.84
2019-04-14T04:37:25.665Z,1018.83
2019-04-14T04:38:05.352Z,1018.83
2019-04-14T04:38:46.310Z,1018.82
2019-04-14T04:39:26.469Z,1018.84
2019-04-14T04:40:07.239Z,1018.86
2019-04-14T04:40:48.547Z,1018.81
2019-04-14T04:41:28.158Z,1018.88
2019-04-14T04:42:09.109Z,1018.86
2019-04-14T04:42:50.425Z,1018.86
2019-04-14T04:43:29.911Z,1018.87
2019-04-14T04:44:11.464Z,1018.86
2019-04-14T04:44:51.065Z,1018.91
2019-04-14T04:45:32.006Z,1018.92
2019-04-14T04:46:13.356Z,1018.88
2019-04-14T04:46:52.837Z,1018.94
2019-04-14T04:47:33.776Z,1018.92
2019-04-14T04:48:15.120Z,1018.93
2019-04-14T04:49:03.082Z,1018.9
2019-04-14T04:49:36.041Z,1018.9
2019-04-14T04:50:15.589Z,1018.97
2019-04-14T04:50:56.409Z,1018.92
2019-04-14T04:51:37.746Z,1019.06
2019-04-14T04:52:17.383Z,1018.93
2019-04-14T04:52:58.266Z,1018.94
2019-04-14T04:53:38.429Z,1018.99
2019-04-14T04:54:18.980Z,1019.01
2019-04-14T04:55:00.172Z,1018.93
2019-04-14T04:55:40.138Z,1018.95
2019-04-14T04:56:20.860Z,1018.97
2019-04-14T04:57:02.358Z,1018.93
2019-04-14T04:57:41.792Z,1018.95
2019-04-14T04:58:28.312Z,1018.97
2019-04-14T04:59:07.762Z,1018.98
2019-04-14T04:59:49.528Z,1019.02
2019-04-14T05:00:28.984Z,1019.03
2019-04-14T05:01:09.925Z,1019
2019-04-14T05:01:51.483Z,1018.96
2019-04-14T05:02:31.042Z,1019.02
2019-04-14T05:03:12.434Z,1019
2019-04-14T05:03:52.208Z,1019.05
2019-04-14T05:04:33.008Z,1019.02
2019-04-14T05:05:14.228Z,1019.01
2019-04-14T05:05:53.932Z,1019.03
2019-04-14T05:06:35.118Z,1019.05
2019-04-14T05:07:15.066Z,1019.06
2019-04-14T05:07:55.643Z,1019.06
2019-04-14T05:08:36.962Z,1019.08
2019-04-14T05:09:16.744Z,1019.1
2019-04-14T05:09:57.735Z,1019.09
2019-04-14T05:10:37.856Z,1019.12
2019-04-14T05:11:18.677Z,1019.08
2019-04-14T05:12:00.218Z,1019.1
2019-04-14T05:12:39.601Z,1019.1
2019-04-14T05:13:20.570Z,1019.11
2019-04-14T05:14:00.736Z,1019.1
2019-04-14T05:14:41.332Z,1019.14
2019-04-14T05:15:22.635Z,1019.17
2019-04-14T05:16:02.625Z,1019.12
2019-04-14T05:16:43.993Z,1019.14
2019-04-14T05:17:23.913Z,1019.14
2019-04-14T05:18:04.922Z,1019.16
2019-04-14T05:18:46.230Z,1019.17
2019-04-14T05:19:30.234Z,1019.16
2019-04-14T05:20:07.265Z,1019.17
2019-04-14T05:20:46.852Z,1019.11
2019-04-14T05:21:27.721Z,1019.13
2019-04-14T05:22:09.156Z,1019.17
2019-04-14T05:22:48.742Z,1019.13
2019-04-14T05:23:29.912Z,1019.15
2019-04-14T05:24:09.817Z,1019.13
2019-04-14T05:24:50.715Z,1019.23
2019-04-14T05:25:31.784Z,1019.14
2019-04-14T05:26:11.784Z,1019.17
2019-04-14T05:26:52.710Z,1019.11
2019-04-14T05:27:34.046Z,1019.15
2019-04-14T05:28:13.516Z,1019.1
2019-04-14T05:28:54.835Z,1019.14
2019-04-14T05:29:34.652Z,1019.14
2019-04-14T05:30:15.420Z,1019.15
2019-04-14T05:30:56.856Z,1019.13
2019-04-14T05:31:36.372Z,1019.18
2019-04-14T05:32:17.370Z,1019.16
2019-04-14T05:32:58.652Z,1019.17
2019-04-14T05:33:38.311Z,1019.17
2019-04-14T05:34:19.412Z,1019.2
2019-04-14T05:34:59.291Z,1019.17
2019-04-14T05:35:40.177Z,1019.18
2019-04-14T05:36:21.431Z,1019.22
2019-04-14T05:37:00.991Z,1019.22
2019-04-14T05:37:42.104Z,1019.2
2019-04-14T05:38:23.514Z,1019.23
2019-04-14T05:39:02.797Z,1019.24
2019-04-14T05:39:44.021Z,1019.22
2019-04-14T05:40:24.023Z,1019.23
2019-04-14T05:41:04.741Z,1019.21
2019-04-14T05:41:56.621Z,1019.27
2019-04-14T05:42:27.145Z,1019.24
2019-04-14T05:43:06.707Z,1019.24
2019-04-14T05:43:51.946Z,1019.21
2019-04-14T05:44:27.626Z,1019.27
2019-04-14T05:45:08.711Z,1019.22
2019-04-14T05:45:50.020Z,1019.23
2019-04-14T05:46:29.598Z,1019.22
2019-04-14T05:47:10.981Z,1019.28
2019-04-14T05:47:50.499Z,1019.29
2019-04-14T05:48:31.461Z,1019.25
2019-04-14T05:49:24.309Z,1019.23
2019-04-14T05:49:54.908Z,1019.26
2019-04-14T05:50:33.498Z,1019.28
2019-04-14T05:51:13.543Z,1019.29
2019-04-14T05:51:54.482Z,1019.26
2019-04-14T05:52:34.656Z,1019.29
2019-04-14T05:53:15.411Z,1019.28
2019-04-14T05:53:56.636Z,1019.29
2019-04-14T05:54:36.318Z,1019.29
2019-04-14T05:55:17.629Z,1019.27
2019-04-14T05:55:57.436Z,1019.26
2019-04-14T05:56:39.101Z,1019.34
2019-04-14T05:57:19.768Z,1019.3
2019-04-14T05:57:59.233Z,1019.26
2019-04-14T05:58:40.372Z,1019.3
2019-04-14T05:59:20.303Z,1019.33
2019-04-14T06:00:01.770Z,1019.29
2019-04-14T06:00:42.088Z,1019.32
2019-04-14T06:01:22.543Z,1019.34
2019-04-14T06:02:02.719Z,1019.32
2019-04-14T06:02:44.115Z,1019.4
2019-04-14T06:03:23.842Z,1019.37
2019-04-14T06:04:04.651Z,1019.33
2019-04-14T06:04:46.015Z,1019.37
2019-04-14T06:05:25.512Z,1019.39
2019-04-14T06:06:06.066Z,1019.38
2019-04-14T06:06:46.628Z,1019.37
2019-04-14T06:07:27.192Z,1019.42
2019-04-14T06:08:07.827Z,1019.41
2019-04-14T06:08:48.387Z,1019.41
2019-04-14T06:09:28.986Z,1019.4
2019-04-14T06:10:09.540Z,1019.41
2019-04-14T06:10:50.119Z,1019.37
2019-04-14T06:11:30.674Z,1019.42
2019-04-14T06:12:11.241Z,1019.4
2019-04-14T06:12:51.810Z,1019.4
2019-04-14T06:13:32.373Z,1019.39
2019-04-14T06:14:12.960Z,1019.45
2019-04-14T06:17:26.996Z,1019.39
2019-04-14T06:18:07.494Z,1019.38
2019-04-14T06:18:48.063Z,1019.45
2019-04-14T06:19:36.923Z,1019.38
2019-04-14T06:20:09.172Z,1019.41
2019-04-14T06:20:49.750Z,1019.43
2019-04-14T06:21:30.337Z,1019.38
2019-04-14T06:22:11.393Z,1019.41
2019-04-14T06:22:51.962Z,1019.4
2019-04-14T06:23:32.604Z,1019.4
2019-04-14T06:24:13.225Z,1019.38
2019-04-14T06:24:54.005Z,1019.4
2019-04-14T06:25:36.340Z,1019.38
2019-04-14T06:26:15.206Z,1019.39
2019-04-14T06:26:55.874Z,1019.38
2019-04-14T06:27:36.780Z,1019.37
2019-04-14T06:28:17.444Z,1019.38
2019-04-14T06:28:57.997Z,1019.39
2019-04-14T06:29:38.856Z,1019.39
2019-04-14T06:30:19.727Z,1019.41
2019-04-14T06:31:00.291Z,1019.4
2019-04-14T06:31:41.084Z,1019.41
2019-04-14T06:32:21.647Z,1019.35
2019-04-14T06:33:02.506Z,1019.41
2019-04-14T06:33:43.059Z,1019.37
2019-04-14T06:34:23.984Z,1019.38
2019-04-14T06:35:04.570Z,1019.42
2019-04-14T06:35:45.171Z,1019.42
2019-04-14T06:36:26.296Z,1019.4
2019-04-14T06:37:07.115Z,1019.45
2019-04-14T06:37:48.023Z,1019.46
2019-04-14T06:38:28.771Z,1019.41
2019-04-14T06:39:09.962Z,1019.44
2019-04-14T06:39:50.560Z,1019.43
2019-04-14T06:40:31.180Z,1019.45
2019-04-14T06:41:11.788Z,1019.46
2019-04-14T06:41:52.428Z,1019.47
2019-04-14T06:42:33.368Z,1019.44
2019-04-14T06:43:16.382Z,1019.46
2019-04-14T06:43:57.452Z,1019.5
2019-04-14T06:44:39.235Z,1019.48
2019-04-14T06:45:20.842Z,1019.47
2019-04-14T06:46:01.957Z,1019.5
2019-04-14T06:46:42.748Z,1019.46
2019-04-14T06:47:23.898Z,1019.49
2019-04-14T06:48:04.668Z,1019.52
2019-04-14T06:48:45.635Z,1019.45
2019-04-14T06:49:26.567Z,1019.46
2019-04-14T06:50:07.166Z,1019.49
2019-04-14T06:50:48.202Z,1019.46
2019-04-14T06:51:30.134Z,1019.49
2019-04-14T06:52:11.123Z,1019.52
2019-04-14T06:52:51.912Z,1019.52
2019-04-14T06:53:32.509Z,1019.51
2019-04-14T06:54:13.632Z,1019.5
2019-04-14T06:54:54.385Z,1019.5
2019-04-14T06:55:35.163Z,1019.53
2019-04-14T06:56:16.099Z,1019.54
2019-04-14T06:56:56.970Z,1019.51
2019-04-14T06:57:37.549Z,1019.53
2019-04-14T06:58:19.426Z,1019.52
2019-04-14T06:59:00.210Z,1019.58
2019-04-14T06:59:40.969Z,1019.55
2019-04-14T07:00:21.785Z,1019.52
2019-04-14T07:01:03.454Z,1019.58
2019-04-14T07:01:44.208Z,1019.57
2019-04-14T07:02:24.762Z,1019.52
2019-04-14T07:03:05.373Z,1019.59
2019-04-14T07:03:46.085Z,1019.54
2019-04-14T07:04:27.817Z,1019.6
2019-04-14T07:05:08.658Z,1019.57
2019-04-14T07:05:49.867Z,1019.59
2019-04-14T07:06:30.446Z,1019.61
2019-04-14T07:07:11.197Z,1019.63
2019-04-14T07:07:57.103Z,1019.59
2019-04-14T07:08:32.491Z,1019.62
2019-04-14T07:09:13.364Z,1019.6
2019-04-14T07:09:54.100Z,1019.66
2019-04-14T07:10:35.200Z,1019.66
2019-04-14T07:11:16.836Z,1019.6
2019-04-14T07:11:57.460Z,1019.6
2019-04-14T07:12:38.440Z,1019.62
2019-04-14T07:13:19.543Z,1019.67
2019-04-14T07:13:59.801Z,1019.66
2019-04-14T07:14:40.818Z,1019.63
2019-04-14T07:15:21.380Z,1019.64
2019-04-14T07:16:01.957Z,1019.63
2019-04-14T07:16:43.319Z,1019.69
2019-04-14T07:17:24.145Z,1019.67
2019-04-14T07:18:04.978Z,1019.72
2019-04-14T07:18:45.769Z,1019.67
2019-04-14T07:19:26.334Z,1019.63
2019-04-14T07:20:06.882Z,1019.65
2019-04-14T07:20:47.465Z,1019.66
2019-04-14T07:21:28.184Z,1019.66
2019-04-14T07:22:08.746Z,1019.66
2019-04-14T07:22:49.522Z,1019.66
2019-04-14T07:23:30.173Z,1019.66
2019-04-14T07:24:11.215Z,1019.65
2019-04-14T07:24:51.804Z,1019.69
2019-04-14T07:25:32.380Z,1019.67
2019-04-14T07:26:13.019Z,1019.64
2019-04-14T07:26:53.657Z,1019.66
2019-04-14T07:27:34.231Z,1019.69
2019-04-14T07:28:14.794Z,1019.69
2019-04-14T07:28:56.752Z,1019.68
2019-04-14T07:29:36.643Z,1019.7
2019-04-14T07:30:17.508Z,1019.71
2019-04-14T07:30:58.259Z,1019.73
2019-04-14T07:31:39.259Z,1019.69
2019-04-14T07:32:19.883Z,1019.69
2019-04-14T07:33:00.468Z,1019.69
2019-04-14T07:33:41.012Z,1019.7
2019-04-14T07:34:21.589Z,1019.71
2019-04-14T07:35:02.160Z,1019.72
2019-04-14T07:35:42.708Z,1019.71
2019-04-14T07:36:23.260Z,1019.7
2019-04-14T07:37:03.836Z,1019.69
2019-04-14T07:37:44.411Z,1019.66
2019-04-14T07:38:24.970Z,1019.75
2019-04-14T07:39:05.536Z,1019.73
2019-04-14T07:39:46.104Z,1019.72
2019-04-14T07:40:26.652Z,1019.72
2019-04-14T07:41:07.574Z,1019.71
2019-04-14T07:41:48.324Z,1019.74
2019-04-14T07:42:29.470Z,1019.75
2019-04-14T07:43:10.732Z,1019.73
2019-04-14T07:43:51.325Z,1019.7
2019-04-14T07:44:32.051Z,1019.7
2019-04-14T07:45:12.623Z,1019.73
2019-04-14T07:45:53.168Z,1019.71
2019-04-14T07:46:33.725Z,1019.7
2019-04-14T07:47:14.284Z,1019.75
2019-04-14T07:47:54.853Z,1019.75
2019-04-14T07:48:35.444Z,1019.73
2019-04-14T07:49:16.018Z,1019.71
2019-04-14T07:49:56.581Z,1019.68
2019-04-14T07:50:37.160Z,1019.72
2019-04-14T07:51:17.743Z,1019.73
2019-04-14T07:51:58.322Z,1019.74
2019-04-14T07:52:38.867Z,1019.7
2019-04-14T07:53:19.434Z,1019.69
2019-04-14T07:53:59.980Z,1019.69
2019-04-14T07:54:41.334Z,1019.71
2019-04-14T07:55:21.171Z,1019.73
2019-04-14T07:56:01.756Z,1019.71
2019-04-14T07:56:42.313Z,1019.75
2019-04-14T07:57:22.900Z,1019.74
2019-04-14T07:58:03.571Z,1019.75
2019-04-14T07:58:44.146Z,1019.73
2019-04-14T07:59:24.706Z,1019.74
2019-04-14T08:00:05.296Z,1019.74
2019-04-14T08:00:45.863Z,1019.77
2019-04-14T08:01:26.409Z,1019.79
2019-04-14T08:02:06.958Z,1019.76
2019-04-14T08:02:47.741Z,1019.82
2019-04-14T08:03:28.375Z,1019.76
2019-04-14T08:04:09.001Z,1019.81
2019-04-14T08:04:49.584Z,1019.79
2019-04-14T08:05:30.190Z,1019.79
2019-04-14T08:06:10.737Z,1019.79
2019-04-14T08:06:51.339Z,1019.8
2019-04-14T08:07:31.940Z,1019.76
2019-04-14T08:08:12.523Z,1019.79
2019-04-14T08:08:53.137Z,1019.79
2019-04-14T08:09:33.701Z,1019.8
2019-04-14T08:10:14.259Z,1019.84
2019-04-14T08:10:54.861Z,1019.82
2019-04-14T08:11:35.418Z,1019.84
2019-04-14T08:12:16.002Z,1019.81
2019-04-14T08:12:56.586Z,1019.81
2019-04-14T08:13:37.165Z,1019.81
2019-04-14T08:14:17.758Z,1019.84
2019-04-14T08:14:58.340Z,1019.82
2019-04-14T08:15:38.944Z,1019.83
2019-04-14T08:16:19.561Z,1019.84
2019-04-14T08:17:00.126Z,1019.86
2019-04-14T08:17:43.493Z,1019.84
2019-04-14T08:18:21.447Z,1019.86
2019-04-14T08:19:02.004Z,1019.9
2019-04-14T08:19:42.562Z,1019.89
2019-04-14T08:20:27.531Z,1019.9
2019-04-14T08:21:03.853Z,1019.87
2019-04-14T08:21:44.431Z,1019.86
2019-04-14T08:22:25.011Z,1019.88
2019-04-14T08:23:05.594Z,1019.9
2019-04-14T08:23:46.166Z,1019.85
2019-04-14T08:24:26.797Z,1019.86
2019-04-14T08:25:07.364Z,1019.89
2019-04-14T08:25:47.937Z,1019.9
2019-04-14T08:26:28.535Z,1019.86
2019-04-14T08:27:09.185Z,1019.9
2019-04-14T08:27:49.723Z,1019.94
2019-04-14T08:28:30.308Z,1019.92
2019-04-14T08:29:10.903Z,1019.92
2019-04-14T08:29:51.462Z,1019.93
2019-04-14T08:30:32.092Z,1019.92
2019-04-14T08:31:12.711Z,1019.95
2019-04-14T08:31:53.309Z,1019.92
2019-04-14T08:32:33.911Z,1019.95
2019-04-14T08:33:14.503Z,1019.93
2019-04-14T08:33:55.090Z,1019.94
2019-04-14T08:34:35.661Z,1019.91
2019-04-14T08:35:16.315Z,1019.97
2019-04-14T08:35:56.877Z,1019.95
2019-04-14T08:36:37.436Z,1019.98
2019-04-14T08:37:18.021Z,1019.99
2019-04-14T08:37:58.582Z,1019.94
2019-04-14T08:38:39.158Z,1020
2019-04-14T08:39:19.740Z,1020.01